createdAt,value
2022-10-25T00:04:32.222Z,3.00
2022-10-25T00:11:25.022Z,2.70
2022-10-25T00:18:07.333Z,2.50
2022-10-25T00:24:49.679Z,2.63
2022-10-25T00:31:32.016Z,2.50
2022-10-25T00:38:14.334Z,3.53
2022-10-25T00:45:01.587Z,3.40
2022-10-25T00:51:48.927Z,3.55
2022-10-25T00:58:35.600Z,3.28
2022-10-25T01:05:19.626Z,3.85
2022-10-25T01:12:02.241Z,1.88
2022-10-25T01:18:58.245Z,2.30
2022-10-25T01:25:47.032Z,2.08
2022-10-25T01:32:41.208Z,2.10
2022-10-25T01:39:31.027Z,2.40
2022-10-25T01:46:44.374Z,2.78
2022-10-25T01:53:26.724Z,2.88
2022-10-25T02:00:10.895Z,2.60
2022-10-25T02:07:03.911Z,2.50
2022-10-25T02:13:52.279Z,2.40
2022-10-25T02:20:36.101Z,2.88
2022-10-25T02:27:23.057Z,3.05
2022-10-25T02:34:05.791Z,3.08
2022-10-25T02:40:48.131Z,2.80
2022-10-25T02:47:30.438Z,3.35
2022-10-25T02:54:12.815Z,2.97
2022-10-25T03:00:55.179Z,3.20
2022-10-25T03:07:39.845Z,3.90
2022-10-25T03:14:22.165Z,3.75
2022-10-25T03:21:05.026Z,4.00
2022-10-25T03:27:48.756Z,4.20
2022-10-25T03:34:31.385Z,4.68
2022-10-25T03:41:14.019Z,4.43
2022-10-25T03:47:56.540Z,4.35
2022-10-25T03:54:38.920Z,4.78
2022-10-25T04:01:21.399Z,4.47
2022-10-25T04:08:03.938Z,3.90
2022-10-25T04:14:46.239Z,3.80
2022-10-25T04:21:28.550Z,3.75
2022-10-25T04:28:10.867Z,4.00
2022-10-25T04:34:53.227Z,3.97
2022-10-25T04:41:35.516Z,4.35
2022-10-25T04:48:18.321Z,4.10
2022-10-25T04:55:00.728Z,3.88
2022-10-25T05:01:43.212Z,3.80
2022-10-25T05:08:25.620Z,4.40
2022-10-25T05:15:08.912Z,5.20
2022-10-25T05:21:51.216Z,4.85
2022-10-25T05:28:35.052Z,5.78
2022-10-25T05:35:17.359Z,5.15
2022-10-25T05:42:00.289Z,4.60
2022-10-25T05:48:48.161Z,4.22
2022-10-25T05:55:31.209Z,4.30
2022-10-25T06:02:13.931Z,4.03
2022-10-25T06:08:58.087Z,4.18
2022-10-25T06:15:40.389Z,5.07
2022-10-25T06:22:22.730Z,5.13
2022-10-25T06:29:05.501Z,5.68
2022-10-25T06:35:47.797Z,5.60
2022-10-25T06:42:30.084Z,6.72
2022-10-25T06:49:13.942Z,5.57
2022-10-25T06:56:05.003Z,5.60
2022-10-25T07:02:57.702Z,4.40
2022-10-25T07:09:40.409Z,4.45
2022-10-25T07:16:22.814Z,4.10
2022-10-25T07:23:07.960Z,3.08
2022-10-25T07:29:50.956Z,2.95
2022-10-25T07:36:35.607Z,2.60
2022-10-25T07:43:17.900Z,2.90
2022-10-25T07:50:00.442Z,2.60
2022-10-25T07:56:42.794Z,2.35
2022-10-25T08:03:25.164Z,2.65
2022-10-25T08:10:07.864Z,2.60
2022-10-25T08:16:50.170Z,2.60
2022-10-25T08:23:33.030Z,2.50
2022-10-25T08:30:15.951Z,2.55
2022-10-25T08:36:58.285Z,2.22
2022-10-25T08:50:49.763Z,2.30
2022-10-25T08:57:38.943Z,2.78
2022-10-25T09:04:22.812Z,3.47
2022-10-25T09:11:29.168Z,2.95
2022-10-25T09:18:19.280Z,2.88
2022-10-25T09:25:26.019Z,2.97
2022-10-25T09:32:51.512Z,2.22
2022-10-25T09:39:40.424Z,2.33
2022-10-25T09:46:51.079Z,2.08
2022-10-25T09:53:37.683Z,1.95
2022-10-25T10:00:20.063Z,1.85
2022-10-25T10:07:29.003Z,2.33
2022-10-25T10:14:21.039Z,1.83
2022-10-25T10:21:15.910Z,2.30
2022-10-25T10:28:00.989Z,2.60
2022-10-25T10:34:50.711Z,2.33
2022-10-25T10:41:33.041Z,1.75
2022-10-25T10:48:24.763Z,1.90
2022-10-25T10:55:21.661Z,1.80
2022-10-25T11:02:13.204Z,1.95
2022-10-25T11:09:22.226Z,1.45
2022-10-25T11:16:35.776Z,1.60
2022-10-25T11:23:30.267Z,1.98
2022-10-25T11:30:26.869Z,1.58
2022-10-25T11:37:29.634Z,1.73
2022-10-25T11:44:38.342Z,1.50
2022-10-25T11:51:27.360Z,1.60
2022-10-25T11:58:19.281Z,1.60
2022-10-25T12:05:35.432Z,1.60
2022-10-25T12:12:28.776Z,2.22
2022-10-25T12:19:14.151Z,1.88
2022-10-25T12:26:06.063Z,1.58
2022-10-25T12:33:02.422Z,1.83
2022-10-25T12:39:46.677Z,1.85
2022-10-25T12:46:51.098Z,2.00
2022-10-25T12:53:52.137Z,1.88
2022-10-25T13:00:48.586Z,1.80
2022-10-25T13:07:33.585Z,2.00
2022-10-25T13:14:29.135Z,1.98
2022-10-25T13:21:31.499Z,1.80
2022-10-25T13:28:13.826Z,1.90
2022-10-25T13:34:59.355Z,2.08
2022-10-25T13:41:48.340Z,1.42
2022-10-25T13:48:34.362Z,2.00
2022-10-25T13:55:21.381Z,1.40
2022-10-25T14:02:19.643Z,1.55
2022-10-25T14:09:33.423Z,1.92
2022-10-25T14:16:35.655Z,2.20
2022-10-25T14:23:22.226Z,1.90
2022-10-25T14:30:26.085Z,1.95
2022-10-25T14:37:14.634Z,2.22
2022-10-25T14:43:57.402Z,2.08
2022-10-25T14:50:39.882Z,1.80
2022-10-25T14:57:25.428Z,1.88
2022-10-25T15:04:07.822Z,1.75
2022-10-25T15:11:00.694Z,1.92
2022-10-25T15:17:51.262Z,2.00
2022-10-25T15:24:44.732Z,2.55
2022-10-25T15:31:32.104Z,1.73
2022-10-25T15:38:17.243Z,1.75
2022-10-25T15:45:19.752Z,2.30
2022-10-25T15:52:02.782Z,1.98
2022-10-25T15:58:45.243Z,2.00
2022-10-25T16:05:29.276Z,2.50
2022-10-25T16:12:25.385Z,2.75
2022-10-25T16:19:16.005Z,2.50
2022-10-25T16:25:58.475Z,2.53
2022-10-25T16:32:42.049Z,3.05
2022-10-25T16:39:24.374Z,3.05
2022-10-25T16:46:08.687Z,2.92
2022-10-25T16:52:51.946Z,3.30
2022-10-25T16:59:34.260Z,3.97
2022-10-25T17:06:39.717Z,3.30
2022-10-25T17:13:20.328Z,2.90
2022-10-25T17:20:03.680Z,2.83
2022-10-25T17:26:45.998Z,3.00
2022-10-25T17:33:28.658Z,9.73
2022-10-25T17:40:13.895Z,3.33
2022-10-25T17:46:58.325Z,2.83
2022-10-25T17:53:43.172Z,3.38
2022-10-25T18:00:25.508Z,3.95
2022-10-25T18:07:09.851Z,3.28
2022-10-25T18:13:53.791Z,3.63
2022-10-25T18:20:40.377Z,3.72
2022-10-25T18:27:22.722Z,3.60
2022-10-25T18:34:05.237Z,3.42
2022-10-25T18:40:47.612Z,4.38
2022-10-25T18:47:38.388Z,4.35
2022-10-25T18:54:20.722Z,4.97
2022-10-25T19:01:11.683Z,4.88
2022-10-25T19:07:54.612Z,4.68
2022-10-25T19:14:36.954Z,5.25
2022-10-25T19:21:20.790Z,5.18
2022-10-25T19:28:03.292Z,5.15
2022-10-25T19:34:45.725Z,4.97
2022-10-25T19:41:28.299Z,4.68
2022-10-25T19:48:10.791Z,4.95
2022-10-25T19:54:53.309Z,5.20
2022-10-25T20:01:35.766Z,6.63
2022-10-25T20:08:18.573Z,4.90
2022-10-25T20:15:00.989Z,5.53
2022-10-25T20:21:43.446Z,5.43
2022-10-25T20:28:27.103Z,5.47
2022-10-25T20:35:09.405Z,5.65
2022-10-25T20:41:54.548Z,5.93
2022-10-25T20:48:37.041Z,5.63
2022-10-25T20:55:19.521Z,4.70
2022-10-25T21:02:01.941Z,5.15
2022-10-25T21:08:44.377Z,5.22
2022-10-25T21:15:53.094Z,5.70
2022-10-25T21:22:35.462Z,5.47
2022-10-25T21:29:17.809Z,4.78
2022-10-25T21:36:09.067Z,5.15
2022-10-25T21:43:06.354Z,4.07
2022-10-25T21:49:48.677Z,5.07
2022-10-25T21:56:31.796Z,4.30
2022-10-25T22:03:14.176Z,5.60
2022-10-25T22:09:56.525Z,4.93
2022-10-25T22:16:39.760Z,4.70
2022-10-25T22:23:22.897Z,4.65
2022-10-25T22:38:39.312Z,5.60
2022-10-25T22:53:55.968Z,5.57
2022-10-25T23:00:38.290Z,5.15
2022-10-25T23:07:20.655Z,4.63
2022-10-25T23:14:13.202Z,4.88
2022-10-25T23:21:09.946Z,4.75
2022-10-25T23:27:52.330Z,4.38
2022-10-25T23:34:34.673Z,4.47
2022-10-25T23:41:18.388Z,4.63
2022-10-25T23:48:00.748Z,5.20
2022-10-25T23:54:43.091Z,4.15
